createdAt,value
2018-02-04T00:00:18.771Z,0.34
2018-02-04T00:01:28.515Z,0.33
2018-02-04T00:02:38.500Z,0.24
2018-02-04T00:03:48.235Z,0.19
2018-02-04T00:04:57.910Z,0.19
2018-02-04T00:06:07.591Z,0.13
2018-02-04T00:07:17.533Z,0.12
2018-02-04T00:08:27.231Z,0.15
2018-02-04T00:09:37.186Z,0.12
2018-02-04T00:10:47.140Z,0.16
2018-02-04T00:11:57.097Z,0.16
2018-02-04T00:13:07.062Z,0.23
2018-02-04T00:14:16.771Z,0.2
2018-02-04T00:15:26.493Z,0.18
2018-02-04T00:16:36.482Z,0.24
2018-02-04T00:17:46.205Z,0.2
2018-02-04T00:18:56.196Z,0.29
2018-02-04T00:20:06.181Z,0.3
2018-02-04T00:21:16.159Z,0.29
2018-02-04T00:22:25.898Z,0.31
2018-02-04T00:23:35.886Z,0.34
2018-02-04T00:24:45.881Z,0.37
2018-02-04T00:25:55.855Z,0.39
2018-02-04T00:27:05.829Z,0.31
2018-02-04T00:28:15.833Z,0.37
2018-02-04T00:29:25.823Z,0.34
2018-02-04T00:30:35.308Z,0.34
2018-02-04T00:31:45.302Z,0.34
2018-02-04T00:32:55.027Z,0.36
2018-02-04T00:34:05.026Z,0.31
2018-02-04T00:35:15.019Z,0.34
2018-02-04T00:36:25.255Z,0.37
2018-02-04T00:37:35.241Z,0.39
2018-02-04T00:38:45.244Z,0.34
2018-02-04T00:39:55.246Z,0.33
2018-02-04T00:41:05.228Z,0.29
2018-02-04T00:42:15.218Z,0.39
2018-02-04T00:43:25.207Z,0.39
2018-02-04T00:44:34.951Z,0.36
2018-02-04T00:45:44.438Z,0.34
2018-02-04T00:46:54.409Z,0.27
2018-02-04T00:48:04.397Z,0.27
2018-02-04T00:49:14.130Z,0.23
2018-02-04T00:50:23.864Z,0.19
2018-02-04T00:51:33.336Z,0.16
2018-02-04T00:52:43.069Z,0.24
2018-02-04T00:53:52.534Z,0.23
2018-02-04T00:55:02.526Z,0.23
2018-02-04T00:56:12.502Z,0.12
2018-02-04T00:57:22.443Z,0.18
2018-02-04T00:58:32.392Z,0.13
2018-02-04T00:59:42.342Z,0.13
2018-02-04T01:00:52.050Z,0
2018-02-04T01:02:01.784Z,0.02
2018-02-04T01:03:11.494Z,0.11
2018-02-04T01:04:20.966Z,0.06
2018-02-04T01:05:31.006Z,0.08
2018-02-04T01:06:41.004Z,0.05
2018-02-04T01:07:50.985Z,0.06
2018-02-04T01:09:00.955Z,0.05
2018-02-04T01:10:10.956Z,0.02
2018-02-04T01:11:20.160Z,0.05
2018-02-04T01:12:30.146Z,0.05
2018-02-04T01:13:40.080Z,0.02
2018-02-04T01:14:50.031Z,0.11
2018-02-04T01:15:59.977Z,0.11
2018-02-04T01:17:09.680Z,0.05
2018-02-04T01:18:19.629Z,0.11
2018-02-04T01:19:29.569Z,0.08
2018-02-04T01:20:39.517Z,0.11
2018-02-04T01:21:49.494Z,0.02
2018-02-04T01:22:59.209Z,0.06
2018-02-04T01:24:08.928Z,0.08
2018-02-04T01:25:18.384Z,0
2018-02-04T01:26:28.393Z,0.08
2018-02-04T01:27:38.095Z,0.05
2018-02-04T01:28:47.797Z,0.05
2018-02-04T01:29:57.751Z,0.08
2018-02-04T01:31:07.707Z,0.06
2018-02-04T01:32:17.125Z,0
2018-02-04T01:33:27.066Z,-0.02
2018-02-04T01:34:37.033Z,0.01
2018-02-04T01:35:46.489Z,-0.07
2018-02-04T01:36:56.208Z,-0.05
2018-02-04T01:38:05.935Z,-0.06
2018-02-04T01:39:15.930Z,-0.12
2018-02-04T01:40:25.649Z,-0.13
2018-02-04T01:41:35.638Z,-0.13
2018-02-04T01:42:45.612Z,-0.21
2018-02-04T01:43:55.335Z,-0.18
2018-02-04T01:45:05.315Z,-0.1
2018-02-04T01:46:15.024Z,-0.2
2018-02-04T01:47:25.061Z,-0.12
2018-02-04T01:48:34.775Z,-0.26
2018-02-04T01:49:44.236Z,-0.18
2018-02-04T01:50:53.707Z,-0.2
2018-02-04T01:52:03.675Z,-0.26
2018-02-04T01:53:13.155Z,-0.1
2018-02-04T01:54:22.886Z,-0.18
2018-02-04T01:55:32.596Z,-0.28
2018-02-04T01:56:42.571Z,-0.15
2018-02-04T01:57:52.545Z,-0.15
2018-02-04T01:59:02.549Z,-0.28
2018-02-04T02:00:12.534Z,-0.33
2018-02-04T02:01:21.743Z,-0.28
2018-02-04T02:02:31.719Z,-0.27
2018-02-04T02:03:41.712Z,-0.26
2018-02-04T02:04:51.681Z,-0.2
2018-02-04T02:06:01.656Z,-0.3
2018-02-04T02:07:11.632Z,-0.21
2018-02-04T02:08:21.621Z,-0.2
2018-02-04T02:09:31.356Z,-0.28
2018-02-04T02:10:41.319Z,-0.3
2018-02-04T02:11:50.776Z,-0.26
2018-02-04T02:13:00.757Z,-0.24
2018-02-04T02:14:10.469Z,-0.26
2018-02-04T02:15:20.450Z,-0.33
2018-02-04T02:16:30.444Z,-0.28
2018-02-04T02:17:40.414Z,-0.42
2018-02-04T02:18:50.389Z,-0.39
2018-02-04T02:20:00.367Z,-0.51
2018-02-04T02:21:10.351Z,-0.53
2018-02-04T02:22:20.330Z,-0.56
2018-02-04T02:23:30.307Z,-0.63
2018-02-04T02:24:40.286Z,-0.6
2018-02-04T02:25:50.020Z,-0.63
2018-02-04T02:26:59.736Z,-0.77
2018-02-04T02:28:09.716Z,-0.69
2018-02-04T02:29:19.423Z,-0.78
2018-02-04T02:30:29.421Z,-0.8
2018-02-04T02:31:39.141Z,-0.75
2018-02-04T02:32:48.861Z,-0.85
2018-02-04T02:33:58.582Z,-0.93
2018-02-04T02:35:08.314Z,-1.03
2018-02-04T02:36:18.305Z,-1
2018-02-04T02:37:28.041Z,-1.01
2018-02-04T02:38:38.012Z,-0.99
2018-02-04T02:39:47.746Z,-0.99
2018-02-04T02:40:57.722Z,-1.09
2018-02-04T02:42:07.432Z,-0.94
2018-02-04T02:43:17.418Z,-1.09
2018-02-04T02:44:27.151Z,-1.09
2018-02-04T02:45:36.876Z,-1.03
2018-02-04T02:46:46.624Z,-1.06
2018-02-04T02:47:56.345Z,-1.07
2018-02-04T02:49:06.086Z,-1.04
2018-02-04T02:50:16.060Z,-1.07
2018-02-04T02:51:26.101Z,-1.06
2018-02-04T02:52:35.854Z,-1.07
2018-02-04T02:53:45.574Z,-1.06
2018-02-04T02:54:55.311Z,-1.15
2018-02-04T02:56:05.301Z,-1.18
2018-02-04T02:57:15.276Z,-1.17
2018-02-04T02:58:25.260Z,-1.15
2018-02-04T02:59:35.241Z,-1.22
2018-02-04T03:00:45.232Z,-1.19
2018-02-04T03:01:54.954Z,-1.25
2018-02-04T03:03:04.941Z,-1.22
2018-02-04T03:04:14.917Z,-1.24
2018-02-04T03:05:24.896Z,-1.19
2018-02-04T03:06:34.604Z,-1.27
2018-02-04T03:07:44.592Z,-1.14
2018-02-04T03:08:54.582Z,-1.19
2018-02-04T03:10:04.557Z,-1.27
2018-02-04T03:11:14.542Z,-1.25
2018-02-04T03:12:24.261Z,-1.3
2018-02-04T03:13:34.258Z,-1.25
2018-02-04T03:14:44.232Z,-1.3
2018-02-04T03:15:53.944Z,-1.3
2018-02-04T03:17:03.953Z,-1.3
2018-02-04T03:18:13.966Z,-1.35
2018-02-04T03:19:23.943Z,-1.33
2018-02-04T03:20:33.660Z,-1.29
2018-02-04T03:21:43.384Z,-1.3
2018-02-04T03:22:53.107Z,-1.35
2018-02-04T03:24:03.085Z,-1.33
2018-02-04T03:25:13.059Z,-1.32
2018-02-04T03:26:22.524Z,-1.3
2018-02-04T03:27:32.240Z,-1.32
2018-02-04T03:28:41.957Z,-1.35
2018-02-04T03:29:51.679Z,-1.42
2018-02-04T03:31:01.670Z,-1.36
2018-02-04T03:32:11.651Z,-1.42
2018-02-04T03:33:21.636Z,-1.4
2018-02-04T03:34:31.577Z,-1.42
2018-02-04T03:35:41.529Z,-1.48
2018-02-04T03:36:51.459Z,-1.57
2018-02-04T03:38:01.389Z,-1.5
2018-02-04T03:39:11.060Z,-1.5
2018-02-04T03:40:20.742Z,-1.53
2018-02-04T03:41:30.419Z,-1.56
2018-02-04T03:42:40.089Z,-1.57
2018-02-04T03:43:50.018Z,-1.63
2018-02-04T03:44:59.949Z,-1.6
2018-02-04T03:46:09.632Z,-1.74
2018-02-04T03:47:19.563Z,-1.71
2018-02-04T03:48:29.496Z,-1.66
2018-02-04T03:49:39.431Z,-1.69
2018-02-04T03:50:49.362Z,-1.74
2018-02-04T03:51:59.308Z,-1.74
2018-02-04T03:53:09.239Z,-1.69
2018-02-04T03:54:19.189Z,-1.69
2018-02-04T03:55:29.143Z,-1.74
2018-02-04T03:56:39.074Z,-1.87
2018-02-04T03:57:48.744Z,-1.92
2018-02-04T03:58:58.682Z,-1.92
2018-02-04T04:00:08.662Z,-1.94
2018-02-04T04:01:18.344Z,-1.94
2018-02-04T04:02:28.285Z,-1.96
2018-02-04T04:03:38.253Z,-2
2018-02-04T04:04:48.186Z,-2
2018-02-04T04:05:57.614Z,-2.04
2018-02-04T04:07:07.569Z,-2.02
2018-02-04T04:08:17.512Z,-1.99
2018-02-04T04:09:27.454Z,-1.99
2018-02-04T04:10:37.389Z,-2.05
2018-02-04T04:11:47.379Z,-2.08
2018-02-04T04:12:57.310Z,-2.02
2018-02-04T04:14:07.255Z,-2.04
2018-02-04T04:15:16.935Z,-2.02
2018-02-04T04:16:26.865Z,-2.02
2018-02-04T04:17:36.550Z,-2.05
2018-02-04T04:18:46.230Z,-2.02
2018-02-04T04:19:56.162Z,-2.08
2018-02-04T04:21:05.838Z,-1.96
2018-02-04T04:22:15.765Z,-2.05
2018-02-04T04:23:25.692Z,-2
2018-02-04T04:24:35.630Z,-2.05
2018-02-04T04:25:45.585Z,-2.02
2018-02-04T04:26:55.314Z,-2.02
2018-02-04T04:28:05.037Z,-2.04
2018-02-04T04:29:15.013Z,-2.1
2018-02-04T04:30:24.744Z,-1.99
2018-02-04T04:31:34.459Z,-1.97
2018-02-04T04:32:44.185Z,-2.02
2018-02-04T04:33:54.172Z,-2.02
2018-02-04T04:35:04.155Z,-2.05
2018-02-04T04:36:14.137Z,-2
2018-02-04T04:37:23.847Z,-2.08
2018-02-04T04:38:33.827Z,-1.94
2018-02-04T04:39:43.789Z,-2.08
2018-02-04T04:40:53.781Z,-2.1
2018-02-04T04:42:03.766Z,-2.1
2018-02-04T04:43:13.731Z,-1.97
2018-02-04T04:44:23.718Z,-2.07
2018-02-04T04:45:33.445Z,-1.99
2018-02-04T04:46:43.420Z,-2.15
2018-02-04T04:47:53.386Z,-2.13
2018-02-04T04:49:03.099Z,-2.11
2018-02-04T04:50:13.079Z,-2.17
2018-02-04T04:51:23.057Z,-2.17
2018-02-04T04:52:32.757Z,-2.25
2018-02-04T04:53:42.482Z,-2.22
2018-02-04T04:54:52.199Z,-2.26
2018-02-04T04:56:01.957Z,-2.26
2018-02-04T04:57:11.944Z,-2.29
2018-02-04T04:58:21.650Z,-2.33
2018-02-04T04:59:31.369Z,-2.29
2018-02-04T05:00:41.092Z,-2.33
2018-02-04T05:01:50.904Z,-2.32
2018-02-04T05:03:00.618Z,-2.29
2018-02-04T05:04:10.329Z,-2.32
2018-02-04T05:05:20.323Z,-2.29
2018-02-04T05:06:30.058Z,-2.26
2018-02-04T05:07:40.028Z,-2.32
2018-02-04T05:08:50.010Z,-2.2
2018-02-04T05:09:59.732Z,-2.22
2018-02-04T05:11:09.701Z,-2.25
2018-02-04T05:12:19.410Z,-2.22
2018-02-04T05:13:29.376Z,-2.23
2018-02-04T05:14:39.457Z,-2.25
2018-02-04T05:15:49.403Z,-2.28
2018-02-04T05:16:59.377Z,-2.28
2018-02-04T05:18:09.368Z,-2.39
2018-02-04T05:19:19.089Z,-2.28
2018-02-04T05:20:29.058Z,-2.28
2018-02-04T05:21:39.048Z,-2.29
2018-02-04T05:22:49.032Z,-2.33
2018-02-04T05:23:58.742Z,-2.29
2018-02-04T05:25:08.714Z,-2.28
2018-02-04T05:26:18.693Z,-2.33
2018-02-04T05:27:28.715Z,-2.36
2018-02-04T05:28:38.174Z,-2.42
2018-02-04T05:29:47.895Z,-2.4
2018-02-04T05:30:57.860Z,-2.36
2018-02-04T05:32:07.825Z,-2.45
2018-02-04T05:33:17.798Z,-2.47
2018-02-04T05:34:27.509Z,-2.48
2018-02-04T05:35:36.977Z,-2.33
2018-02-04T05:36:46.954Z,-2.55
2018-02-04T05:37:56.920Z,-2.48
2018-02-04T05:39:06.901Z,-2.54
2018-02-04T05:40:16.921Z,-2.48
2018-02-04T05:41:26.904Z,-2.51
2018-02-04T05:42:36.628Z,-2.52
2018-02-04T05:43:46.612Z,-2.5
2018-02-04T05:44:55.801Z,-2.47
2018-02-04T05:46:05.782Z,-2.52
2018-02-04T05:47:15.499Z,-2.54
2018-02-04T05:48:25.474Z,-2.51
2018-02-04T05:49:35.448Z,-2.51
2018-02-04T05:50:45.414Z,-2.51
2018-02-04T05:51:55.391Z,-2.45
2018-02-04T05:53:05.390Z,-2.51
2018-02-04T05:54:15.363Z,-2.55
2018-02-04T05:55:25.351Z,-2.4
2018-02-04T05:56:35.059Z,-2.57
2018-02-04T05:57:45.050Z,-2.39
2018-02-04T05:58:55.030Z,-2.52
2018-02-04T06:00:04.764Z,-2.54
2018-02-04T06:01:14.223Z,-2.48
2018-02-04T06:02:24.216Z,-2.52
2018-02-04T06:03:34.186Z,-2.42
2018-02-04T06:04:44.177Z,-2.5
2018-02-04T06:05:54.215Z,-2.51
2018-02-04T06:07:03.942Z,-2.48
2018-02-04T06:08:13.919Z,-2.52
2018-02-04T06:09:23.889Z,-2.5
2018-02-04T06:10:33.885Z,-2.52
2018-02-04T06:11:43.896Z,-2.52
2018-02-04T06:12:53.606Z,-2.45
2018-02-04T06:14:03.659Z,-2.48
2018-02-04T06:15:13.639Z,-2.47
2018-02-04T06:16:23.607Z,-2.42
2018-02-04T06:17:33.600Z,-2.52
2018-02-04T06:18:43.317Z,-2.51
2018-02-04T06:19:52.262Z,-2.47
2018-02-04T06:21:02.242Z,-2.52
2018-02-04T06:22:11.960Z,-2.4
2018-02-04T06:23:21.683Z,-2.45
2018-02-04T06:24:31.676Z,-2.39
2018-02-04T06:25:41.653Z,-2.48
2018-02-04T06:26:51.366Z,-2.47
2018-02-04T06:28:01.333Z,-2.51
2018-02-04T06:29:11.323Z,-2.45
2018-02-04T06:30:21.300Z,-2.44
2018-02-04T06:31:31.013Z,-2.42
2018-02-04T06:32:40.750Z,-2.4
2018-02-04T06:33:50.459Z,-2.36
2018-02-04T06:35:00.450Z,-2.42
2018-02-04T06:36:10.428Z,-2.37
2018-02-04T06:37:20.393Z,-2.34
2018-02-04T06:38:30.143Z,-2.39
2018-02-04T06:39:39.857Z,-2.25
2018-02-04T06:40:49.828Z,-2.34
2018-02-04T06:41:59.878Z,-2.28
2018-02-04T06:43:09.603Z,-2.33
2018-02-04T06:44:19.566Z,-2.33
2018-02-04T06:45:29.335Z,-2.29
2018-02-04T06:46:39.327Z,-2.29
2018-02-04T06:47:49.050Z,-2.34
2018-02-04T06:48:58.507Z,-2.29
2018-02-04T06:50:08.474Z,-2.28
2018-02-04T06:51:18.445Z,-2.29
2018-02-04T06:52:28.433Z,-2.33
2018-02-04T06:53:38.446Z,-2.28
2018-02-04T06:54:48.173Z,-2.28
2018-02-04T06:55:58.171Z,-2.33
2018-02-04T06:57:08.146Z,-2.34
2018-02-04T06:58:17.868Z,-2.34
2018-02-04T06:59:27.600Z,-2.36
2018-02-04T07:00:37.544Z,-2.29
2018-02-04T07:01:47.260Z,-2.28
2018-02-04T07:02:57.237Z,-2.29
2018-02-04T07:04:07.224Z,-2.26
2018-02-04T07:05:16.960Z,-2.34
2018-02-04T07:06:26.677Z,-2.29
2018-02-04T07:07:36.651Z,-2.28
2018-02-04T07:08:46.358Z,-2.29
2018-02-04T07:09:56.341Z,-2.28
2018-02-04T07:11:06.312Z,-2.23
2018-02-04T07:12:16.285Z,-2.34
2018-02-04T07:13:26.004Z,-2.29
2018-02-04T07:14:35.736Z,-2.26
2018-02-04T07:15:45.465Z,-2.37
2018-02-04T07:16:55.177Z,-2.29
2018-02-04T07:18:04.914Z,-2.33
2018-02-04T07:19:14.880Z,-2.25
2018-02-04T07:20:24.842Z,-2.25
2018-02-04T07:21:34.942Z,-2.28
2018-02-04T07:22:44.938Z,-2.29
2018-02-04T07:23:54.908Z,-2.29
2018-02-04T07:25:04.890Z,-2.26
2018-02-04T07:26:14.860Z,-2.26
2018-02-04T07:27:24.598Z,-2.33
2018-02-04T07:28:34.575Z,-2.34
2018-02-04T07:29:44.593Z,-2.28
2018-02-04T07:30:54.571Z,-2.26
2018-02-04T07:32:04.560Z,-2.26
2018-02-04T07:33:14.277Z,-2.28
2018-02-04T07:34:23.994Z,-2.28
2018-02-04T07:35:33.449Z,-2.29
2018-02-04T07:36:42.915Z,-2.26
2018-02-04T07:37:52.896Z,-2.29
2018-02-04T07:39:02.622Z,-2.28
2018-02-04T07:40:12.610Z,-2.26
2018-02-04T07:41:22.330Z,-2.25
2018-02-04T07:42:32.046Z,-2.15
2018-02-04T07:43:41.768Z,-2.22
2018-02-04T07:44:51.743Z,-2.18
2018-02-04T07:46:01.461Z,-2.14
2018-02-04T07:47:11.443Z,-2.14
2018-02-04T07:48:21.190Z,-2.07
2018-02-04T07:49:31.163Z,-1.93
2018-02-04T07:50:40.888Z,-2.07
2018-02-04T07:51:50.852Z,-2.04
2018-02-04T07:53:00.843Z,-2.08
2018-02-04T07:54:10.838Z,-2.02
2018-02-04T07:55:20.568Z,-1.97
2018-02-04T07:56:30.314Z,-1.92
2018-02-04T07:57:40.297Z,-1.92
2018-02-04T07:58:50.275Z,-1.87
2018-02-04T08:00:00.297Z,-1.75
2018-02-04T08:01:10.304Z,-1.84
2018-02-04T08:02:20.030Z,-1.72
2018-02-04T08:03:29.996Z,-1.69
2018-02-04T08:04:39.744Z,-1.72
2018-02-04T08:05:49.450Z,-1.72
2018-02-04T08:06:59.225Z,-1.69
2018-02-04T08:08:09.198Z,-1.6
2018-02-04T08:09:18.935Z,-1.6
2018-02-04T08:10:28.651Z,-1.43
2018-02-04T08:11:38.643Z,-1.32
2018-02-04T08:12:48.625Z,-1.25
2018-02-04T08:13:58.608Z,-1.04
2018-02-04T08:15:08.586Z,-0.89
2018-02-04T08:16:18.573Z,-0.72
2018-02-04T08:17:28.307Z,-0.41
2018-02-04T08:18:38.025Z,-0.23
2018-02-04T08:19:47.764Z,-0.02
2018-02-04T08:20:57.743Z,0.33
2018-02-04T08:22:07.455Z,0.49
2018-02-04T08:23:17.455Z,0.82
2018-02-04T08:24:27.502Z,1.12
2018-02-04T08:25:37.235Z,1.43
2018-02-04T08:26:47.018Z,1.74
2018-02-04T08:27:56.754Z,2.07
2018-02-04T08:29:06.725Z,2.3
2018-02-04T08:30:16.445Z,2.52
2018-02-04T08:31:26.432Z,2.83
2018-02-04T08:32:36.165Z,3.03
2018-02-04T08:33:46.159Z,3.15
2018-02-04T08:34:56.136Z,3.45
2018-02-04T08:36:06.127Z,3.5
2018-02-04T08:37:16.133Z,3.63
2018-02-04T08:38:26.108Z,3.7
2018-02-04T08:39:36.153Z,3.86
2018-02-04T08:40:46.142Z,3.84
2018-02-04T08:41:55.861Z,3.88
2018-02-04T08:43:05.602Z,3.99
2018-02-04T08:44:15.333Z,3.95
2018-02-04T08:45:25.331Z,4.03
2018-02-04T08:46:34.816Z,3.91
2018-02-04T08:47:44.539Z,3.95
2018-02-04T08:48:54.324Z,4.1
2018-02-04T08:50:04.103Z,4.2
2018-02-04T08:51:13.823Z,4.22
2018-02-04T08:52:23.549Z,4.36
2018-02-04T08:53:33.292Z,4.32
2018-02-04T08:54:43.031Z,4.25
2018-02-04T08:55:53.015Z,4.38
2018-02-04T08:57:02.747Z,4.43
2018-02-04T08:58:12.736Z,4.52
2018-02-04T08:59:22.215Z,4.63
2018-02-04T09:00:31.941Z,4.61
2018-02-04T09:01:41.967Z,4.63
2018-02-04T09:02:52.264Z,4.66
2018-02-04T09:04:02.267Z,4.87
2018-02-04T09:05:12.250Z,5.02
2018-02-04T09:06:22.225Z,5.29
2018-02-04T09:07:31.967Z,5.26
2018-02-04T09:08:41.979Z,5.47
2018-02-04T09:09:51.979Z,5.72
2018-02-04T09:11:01.966Z,5.79
2018-02-04T09:12:11.686Z,5.8
2018-02-04T09:13:21.757Z,5.84
2018-02-04T09:14:31.488Z,5.95
2018-02-04T09:15:41.516Z,5.95
2018-02-04T09:16:51.517Z,6.07
2018-02-04T09:18:01.257Z,6.32
2018-02-04T09:19:10.577Z,6.38
2018-02-04T09:20:20.626Z,6.38
2018-02-04T09:21:30.610Z,6.32
2018-02-04T09:22:40.355Z,6.29
2018-02-04T09:23:50.080Z,6.29
2018-02-04T09:25:00.092Z,6.35
2018-02-04T09:26:09.839Z,6.52
2018-02-04T09:27:19.826Z,6.56
2018-02-04T09:28:29.843Z,6.6
2018-02-04T09:29:39.571Z,6.52
2018-02-04T09:30:49.561Z,6.46
2018-02-04T09:31:59.548Z,6.56
2018-02-04T09:33:09.282Z,6.54
2018-02-04T09:34:19.278Z,6.54
2018-02-04T09:35:29.255Z,6.65
2018-02-04T09:36:38.984Z,6.8
2018-02-04T09:37:48.736Z,6.85
2018-02-04T09:38:58.744Z,6.85
2018-02-04T09:40:08.747Z,6.85
2018-02-04T09:41:18.738Z,6.93
2018-02-04T09:42:28.465Z,6.77
2018-02-04T09:43:38.184Z,6.72
2018-02-04T09:44:47.920Z,6.71
2018-02-04T09:45:57.400Z,6.74
2018-02-04T09:47:07.412Z,6.62
2018-02-04T09:48:17.395Z,6.89
2018-02-04T09:49:27.126Z,6.96
2018-02-04T09:50:37.122Z,7.01
2018-02-04T09:51:46.842Z,6.71
2018-02-04T09:52:56.831Z,6.7
2018-02-04T09:54:06.568Z,6.96
2018-02-04T09:55:16.559Z,7.21
2018-02-04T09:56:26.026Z,7.31
2018-02-04T09:57:35.760Z,7.51
2018-02-04T09:58:45.611Z,7.74
2018-02-04T09:59:55.887Z,7.9
2018-02-04T10:01:05.892Z,7.81
2018-02-04T10:02:15.358Z,7.9
2018-02-04T10:03:25.104Z,7.62
2018-02-04T10:04:34.832Z,7.66
2018-02-04T10:05:44.833Z,7.9
2018-02-04T10:06:54.834Z,7.93
2018-02-04T10:08:04.578Z,7.88
2018-02-04T10:09:14.049Z,7.78
2018-02-04T10:10:24.283Z,7.36
2018-02-04T10:11:34.282Z,7.08
2018-02-04T10:12:44.290Z,7.26
2018-02-04T10:13:54.294Z,7.13
2018-02-04T10:15:04.308Z,7.1
2018-02-04T10:16:14.302Z,6.96
2018-02-04T10:17:24.287Z,6.97
2018-02-04T10:18:34.334Z,6.87
2018-02-04T10:19:44.071Z,6.95
2018-02-04T10:20:54.090Z,6.86
2018-02-04T10:22:03.832Z,6.89
2018-02-04T10:23:13.820Z,7.04
2018-02-04T10:24:23.382Z,7.39
2018-02-04T10:25:33.146Z,7.78
2018-02-04T10:26:42.900Z,8.31
2018-02-04T10:27:52.406Z,8.66
2018-02-04T10:29:02.645Z,8.77
2018-02-04T10:30:12.402Z,8.74
2018-02-04T10:31:21.882Z,8.77
2018-02-04T10:32:31.867Z,9.19
2018-02-04T10:33:41.874Z,9.58
2018-02-04T10:34:51.868Z,9.84
2018-02-04T10:36:01.846Z,10.05
2018-02-04T10:37:11.857Z,10.28
2018-02-04T10:38:21.854Z,10.38
2018-02-04T10:39:31.639Z,10.03
2018-02-04T10:40:41.377Z,9.29
2018-02-04T10:41:51.124Z,9.11
2018-02-04T10:43:00.851Z,9.44
2018-02-04T10:44:10.870Z,9.62
2018-02-04T10:45:20.865Z,9.99
2018-02-04T10:46:30.869Z,10.28
2018-02-04T10:47:40.868Z,10.41
2018-02-04T10:48:50.857Z,10.79
2018-02-04T10:50:00.880Z,11.26
2018-02-04T10:51:10.875Z,11.63
2018-02-04T10:52:20.861Z,12
2018-02-04T10:53:30.880Z,11.73
2018-02-04T10:54:40.634Z,11.89
2018-02-04T10:55:50.631Z,11.65
2018-02-04T10:57:00.624Z,11.25
2018-02-04T10:58:10.612Z,11.45
2018-02-04T10:59:20.627Z,11.73
2018-02-04T11:00:30.371Z,11.83
2018-02-04T11:01:40.401Z,12.1
2018-02-04T11:02:50.390Z,12.35
2018-02-04T11:04:00.366Z,11.93
2018-02-04T11:05:10.109Z,11.78
2018-02-04T11:06:20.114Z,11.73
2018-02-04T11:07:29.844Z,12.02
2018-02-04T11:08:39.595Z,11.85
2018-02-04T11:09:49.328Z,11.95
2018-02-04T11:10:59.336Z,12.08
2018-02-04T11:12:09.339Z,11.67
2018-02-04T11:13:19.352Z,11.59
2018-02-04T11:14:29.351Z,11.99
2018-02-04T11:15:39.349Z,12.29
2018-02-04T11:16:49.345Z,12.08
2018-02-04T11:17:58.874Z,11.77
2018-02-04T11:19:08.600Z,11.31
2018-02-04T11:20:18.598Z,10.95
2018-02-04T11:21:28.316Z,10.64
2018-02-04T11:22:38.022Z,9.9
2018-02-04T11:23:47.728Z,9.56
2018-02-04T11:24:57.685Z,9.24
2018-02-04T11:26:07.701Z,9.45
2018-02-04T11:27:17.653Z,9.95
2018-02-04T11:28:27.616Z,10.61
2018-02-04T11:29:37.591Z,11.25
2018-02-04T11:30:47.554Z,11.97
2018-02-04T11:31:57.262Z,12.5
2018-02-04T11:33:07.247Z,12.76
2018-02-04T11:34:16.957Z,12.91
2018-02-04T11:35:26.664Z,13.05
2018-02-04T11:36:36.685Z,13.2
2018-02-04T11:37:46.652Z,13.52
2018-02-04T11:38:56.360Z,13.85
2018-02-04T11:40:06.369Z,13.95
2018-02-04T11:41:15.853Z,14.37
2018-02-04T11:42:25.884Z,14.51
2018-02-04T11:43:35.624Z,14.61
2018-02-04T11:44:45.626Z,13.97
2018-02-04T11:45:55.365Z,13.87
2018-02-04T11:47:05.155Z,13.24
2018-02-04T11:48:15.167Z,13.47
2018-02-04T11:49:24.916Z,13.75
2018-02-04T11:50:34.937Z,13.37
2018-02-04T11:51:44.946Z,12.78
2018-02-04T11:52:55.031Z,12.35
2018-02-04T11:54:05.085Z,12.15
2018-02-04T11:55:15.086Z,12.35
2018-02-04T11:56:25.101Z,12.66
2018-02-04T11:57:35.345Z,13.12
2018-02-04T11:58:45.341Z,13.49
2018-02-04T11:59:55.375Z,13.83
2018-02-04T12:01:05.388Z,14.07
2018-02-04T12:02:15.204Z,14.26
2018-02-04T12:03:24.688Z,14.59
2018-02-04T12:04:34.689Z,14.9
2018-02-04T12:05:44.416Z,15.18
2018-02-04T12:06:54.425Z,15.35
2018-02-04T12:08:04.428Z,15.15
2018-02-04T12:09:13.905Z,15.12
2018-02-04T12:10:23.656Z,14.58
2018-02-04T12:11:33.655Z,13.87
2018-02-04T12:12:43.409Z,13.58
2018-02-04T12:13:53.422Z,13.05
2018-02-04T12:15:03.442Z,13.27
2018-02-04T12:16:13.182Z,13.33
2018-02-04T12:17:23.176Z,13.54
2018-02-04T12:18:33.178Z,13.8
2018-02-04T12:19:42.934Z,13.02
2018-02-04T12:20:52.935Z,12.4
2018-02-04T12:22:02.684Z,11.89
2018-02-04T12:23:12.744Z,11.77
2018-02-04T12:24:22.752Z,11.6
2018-02-04T12:25:32.497Z,11.93
2018-02-04T12:26:42.506Z,11.7
2018-02-04T12:27:52.474Z,11.58
2018-02-04T12:29:02.511Z,11.68
2018-02-04T12:30:12.516Z,11.91
2018-02-04T12:31:22.282Z,12.43
2018-02-04T12:32:32.012Z,12.9
2018-02-04T12:33:41.768Z,12.94
2018-02-04T12:34:51.775Z,12.9
2018-02-04T12:36:01.517Z,12.75
2018-02-04T12:37:11.529Z,12.2
2018-02-04T12:38:21.291Z,11.3
2018-02-04T12:39:31.039Z,10.84
2018-02-04T12:40:41.026Z,10.95
2018-02-04T12:41:51.035Z,10.95
2018-02-04T12:43:01.098Z,11.23
2018-02-04T12:44:10.832Z,11.74
2018-02-04T12:45:20.582Z,12.18
2018-02-04T12:46:30.812Z,11.62
2018-02-04T12:47:40.883Z,10.94
2018-02-04T12:48:51.144Z,10.34
2018-02-04T12:50:01.142Z,10.34
2018-02-04T12:51:10.888Z,10.34
2018-02-04T12:52:20.637Z,10.27
2018-02-04T12:53:29.860Z,10.09
2018-02-04T12:54:39.335Z,10.17
2018-02-04T12:55:49.333Z,10.41
2018-02-04T12:56:59.370Z,10.79
2018-02-04T12:58:09.381Z,11.19
2018-02-04T12:59:19.391Z,11.74
2018-02-04T13:00:29.126Z,11.86
2018-02-04T13:01:39.130Z,12.02
2018-02-04T13:02:49.128Z,11.81
2018-02-04T13:03:58.613Z,11.02
2018-02-04T13:05:08.623Z,10.79
2018-02-04T13:06:18.372Z,10.77
2018-02-04T13:07:28.361Z,10.67
2018-02-04T13:08:38.093Z,10.25
2018-02-04T13:09:47.859Z,10.05
2018-02-04T13:10:57.343Z,9.64
2018-02-04T13:12:07.075Z,9.63
2018-02-04T13:13:16.547Z,9.81
2018-02-04T13:14:26.299Z,9.82
2018-02-04T13:15:36.045Z,9.69
2018-02-04T13:16:45.809Z,9.48
2018-02-04T13:17:55.802Z,9.22
2018-02-04T13:19:05.804Z,9.26
2018-02-04T13:20:15.799Z,9.31
2018-02-04T13:21:25.813Z,9.11
2018-02-04T13:22:35.538Z,8.68
2018-02-04T13:23:45.010Z,8.45
2018-02-04T13:24:55.059Z,8.09
2018-02-04T13:26:05.055Z,7.81
2018-02-04T13:27:15.061Z,7.66
2018-02-04T13:28:25.087Z,7.18
2018-02-04T13:29:35.098Z,6.95
2018-02-04T13:30:45.101Z,6.87
2018-02-04T13:31:54.841Z,7.01
2018-02-04T13:33:04.572Z,7.28
2018-02-04T13:34:14.575Z,7.32
2018-02-04T13:35:24.064Z,7.29
2018-02-04T13:36:34.062Z,7.22
2018-02-04T13:37:44.064Z,7.31
2018-02-04T13:38:54.104Z,7.28
2018-02-04T13:40:03.833Z,7.32
2018-02-04T13:41:13.840Z,7.36
2018-02-04T13:42:23.597Z,7.18
2018-02-04T13:43:33.328Z,7.18
2018-02-04T13:44:43.096Z,6.95
2018-02-04T13:45:52.874Z,6.6
2018-02-04T13:47:02.871Z,6.35
2018-02-04T13:48:12.610Z,6.13
2018-02-04T13:49:22.345Z,6.13
2018-02-04T13:50:32.075Z,6.19
2018-02-04T13:51:42.073Z,6.13
2018-02-04T13:52:51.818Z,6.22
2018-02-04T13:54:01.804Z,6.15
2018-02-04T13:55:11.799Z,6.09
2018-02-04T13:56:21.800Z,6.16
2018-02-04T13:57:31.797Z,6.13
2018-02-04T13:58:41.808Z,6.15
2018-02-04T13:59:51.817Z,6.13
2018-02-04T14:01:01.821Z,6.01
2018-02-04T14:02:11.566Z,6.07
2018-02-04T14:03:21.288Z,5.8
2018-02-04T14:04:31.301Z,5.65
2018-02-04T14:05:41.317Z,5.67
2018-02-04T14:06:51.054Z,5.62
2018-02-04T14:08:00.780Z,5.69
2018-02-04T14:09:10.533Z,5.46
2018-02-04T14:10:20.009Z,5.36
2018-02-04T14:11:29.752Z,5.19
2018-02-04T14:12:39.760Z,5.13
2018-02-04T14:13:49.759Z,5.18
2018-02-04T14:14:59.497Z,4.97
2018-02-04T14:16:09.282Z,4.82
2018-02-04T14:17:19.273Z,4.68
2018-02-04T14:18:29.012Z,4.7
2018-02-04T14:19:38.997Z,4.6
2018-02-04T14:20:48.714Z,4.6
2018-02-04T14:21:58.717Z,4.38
2018-02-04T14:23:08.447Z,4.28
2018-02-04T14:24:18.470Z,4.21
2018-02-04T14:25:28.462Z,4
2018-02-04T14:26:38.453Z,3.84
2018-02-04T14:27:48.241Z,3.91
2018-02-04T14:28:57.995Z,3.68
2018-02-04T14:30:07.998Z,3.53
2018-02-04T14:31:18.003Z,3.58
2018-02-04T14:32:27.984Z,3.48
2018-02-04T14:33:37.953Z,3.45
2018-02-04T14:34:47.396Z,3.52
2018-02-04T14:35:56.890Z,3.43
2018-02-04T14:37:06.681Z,3.41
2018-02-04T14:38:16.477Z,3.52
2018-02-04T14:39:26.206Z,3.48
2018-02-04T14:40:35.961Z,3.63
2018-02-04T14:41:45.960Z,3.59
2018-02-04T14:42:55.935Z,3.48
2018-02-04T14:44:05.935Z,3.53
2018-02-04T14:45:15.917Z,3.52
2018-02-04T14:46:25.641Z,3.5
2018-02-04T14:47:35.386Z,3.43
2018-02-04T14:48:45.110Z,3.24
2018-02-04T14:49:54.855Z,3.27
2018-02-04T14:51:04.865Z,3.34
2018-02-04T14:52:14.588Z,3.4
2018-02-04T14:53:24.312Z,3.21
2018-02-04T14:54:34.307Z,3.19
2018-02-04T14:55:44.279Z,3.11
2018-02-04T14:56:54.242Z,3.09
2018-02-04T14:58:04.175Z,3.12
2018-02-04T14:59:13.927Z,3.05
2018-02-04T15:00:23.907Z,2.95
2018-02-04T15:01:33.857Z,2.93
2018-02-04T15:02:43.554Z,2.82
2018-02-04T15:03:53.494Z,2.76
2018-02-04T15:05:03.459Z,2.76
2018-02-04T15:06:13.418Z,2.68
2018-02-04T15:07:23.355Z,2.7
2018-02-04T15:08:33.299Z,2.62
2018-02-04T15:09:43.256Z,2.44
2018-02-04T15:10:53.503Z,2.52
2018-02-04T15:12:03.460Z,2.39
2018-02-04T15:13:13.411Z,2.46
2018-02-04T15:14:23.391Z,2.4
2018-02-04T15:15:33.105Z,2.41